createdAt,value
2023-04-10T00:01:35.737Z,52.47
2023-04-10T00:04:03.840Z,51.83
2023-04-10T00:06:31.774Z,53.35
2023-04-10T00:08:59.535Z,53.12
2023-04-10T00:11:27.530Z,53.80
2023-04-10T00:13:54.763Z,53.94
2023-04-10T00:16:22.026Z,56.14
2023-04-10T00:18:48.968Z,57.42
2023-04-10T00:21:15.989Z,58.28
2023-04-10T00:23:43.020Z,58.57
2023-04-10T00:26:10.479Z,59.85
2023-04-10T00:28:38.227Z,60.48
2023-04-10T00:31:06.061Z,62.88
2023-04-10T00:33:33.227Z,64.57
2023-04-10T00:36:00.297Z,64.70
2023-04-10T00:38:29.332Z,64.86
2023-04-10T00:40:57.738Z,64.89
2023-04-10T00:43:24.723Z,64.28
2023-04-10T00:45:52.131Z,66.25
2023-04-10T00:48:19.426Z,66.27
2023-04-10T00:50:47.512Z,67.50
2023-04-10T00:53:14.539Z,69.00
2023-04-10T00:55:41.722Z,69.76
2023-04-10T00:58:08.826Z,70.55
2023-04-10T01:00:35.843Z,70.99
2023-04-10T01:03:03.806Z,71.78
2023-04-10T01:05:39.915Z,71.42
2023-04-10T01:08:23.176Z,70.00
2023-04-10T01:11:07.392Z,70.67
2023-04-10T01:14:13.507Z,71.73
2023-04-10T01:17:07.611Z,71.87
2023-04-10T01:20:00.432Z,72.55
2023-04-10T01:22:49.362Z,71.32
2023-04-10T01:26:01.382Z,71.42
2023-04-10T01:28:57.174Z,72.25
2023-04-10T01:31:47.697Z,71.60
2023-04-10T01:34:22.120Z,72.25
2023-04-10T01:37:05.376Z,71.90
2023-04-10T01:39:39.525Z,70.98
2023-04-10T01:42:09.590Z,71.71
2023-04-10T01:44:44.749Z,72.33
2023-04-10T01:47:16.969Z,72.34
2023-04-10T01:49:47.351Z,72.84
2023-04-10T01:52:17.185Z,72.88
2023-04-10T01:54:52.817Z,72.29
2023-04-10T01:57:31.821Z,71.94
2023-04-10T01:59:59.616Z,70.68
2023-04-10T02:02:34.310Z,71.43
2023-04-10T02:05:01.603Z,72.27
2023-04-10T02:07:41.829Z,71.96
2023-04-10T02:10:17.609Z,72.54
2023-04-10T02:13:08.036Z,72.26
2023-04-10T02:15:36.907Z,72.43
2023-04-10T02:18:06.653Z,73.05
2023-04-10T02:20:34.836Z,72.64
2023-04-10T02:23:03.966Z,73.34
2023-04-10T02:25:35.123Z,73.17
2023-04-10T02:28:08.829Z,73.39
2023-04-10T02:30:36.106Z,72.87
2023-04-10T02:33:03.359Z,73.83
2023-04-10T02:35:32.131Z,73.54
2023-04-10T02:37:59.170Z,74.40
2023-04-10T02:40:26.487Z,74.49
2023-04-10T02:43:09.161Z,74.39
2023-04-10T02:45:36.270Z,73.25
2023-04-10T02:48:08.577Z,72.69
2023-04-10T02:50:35.638Z,72.60
2023-04-10T02:53:02.633Z,73.36
2023-04-10T02:55:29.907Z,73.27
2023-04-10T02:57:57.607Z,73.20
2023-04-10T03:00:26.034Z,73.81
2023-04-10T03:03:09.237Z,73.72
2023-04-10T03:05:43.918Z,75.12
2023-04-10T03:08:11.046Z,75.09
2023-04-10T03:10:38.054Z,75.56
2023-04-10T03:13:05.073Z,75.88
2023-04-10T03:15:33.974Z,76.48
2023-04-10T03:18:01.150Z,76.67
2023-04-10T03:20:29.195Z,77.16
2023-04-10T03:22:56.131Z,77.52
2023-04-10T03:25:27.282Z,77.66
2023-04-10T03:27:55.124Z,78.17
2023-04-10T03:30:22.755Z,78.82
2023-04-10T03:32:49.822Z,79.79
2023-04-10T03:35:16.964Z,79.85
2023-04-10T03:37:43.945Z,80.37
2023-04-10T03:40:12.452Z,80.49
2023-04-10T03:42:41.224Z,80.05
2023-04-10T03:45:09.279Z,80.09
2023-04-10T03:47:36.439Z,79.54
2023-04-10T03:50:06.550Z,80.24
2023-04-10T03:52:41.361Z,79.30
2023-04-10T03:55:14.483Z,79.49
2023-04-10T03:57:42.066Z,80.36
2023-04-10T04:00:11.378Z,80.36
2023-04-10T04:02:50.589Z,80.55
2023-04-10T04:05:38.251Z,80.67
2023-04-10T04:08:38.778Z,79.81
2023-04-10T04:11:24.308Z,79.48
2023-04-10T04:14:01.074Z,79.27
2023-04-10T04:16:46.470Z,79.67
2023-04-10T04:19:32.239Z,78.21
2023-04-10T04:22:25.056Z,77.47
2023-04-10T04:24:57.470Z,75.46
2023-04-10T04:27:56.555Z,78.48
2023-04-10T04:30:46.197Z,79.63
2023-04-10T04:33:20.793Z,80.31
2023-04-10T04:35:59.968Z,80.64
2023-04-10T04:38:38.821Z,80.58
2023-04-10T04:41:11.874Z,81.51
2023-04-10T04:44:04.787Z,82.80
2023-04-10T04:46:53.041Z,84.57
2023-04-10T04:49:28.955Z,83.51
2023-04-10T04:52:25.693Z,84.24
2023-04-10T04:58:06.608Z,81.98
2023-04-10T05:03:54.872Z,83.72
2023-04-10T05:06:22.241Z,83.46
2023-04-10T05:29:42.898Z,82.34
2023-04-10T05:32:18.301Z,80.59
2023-04-10T05:35:12.630Z,79.67
2023-04-10T05:37:56.962Z,78.30
2023-04-10T05:40:47.956Z,79.08
2023-04-10T05:46:33.296Z,80.31
2023-04-10T05:49:20.557Z,80.98
2023-04-10T05:52:06.180Z,80.04
2023-04-10T05:54:49.830Z,79.29
2023-04-10T06:18:24.335Z,67.59
2023-04-10T06:20:51.978Z,69.05
2023-04-10T06:23:21.704Z,64.63
2023-04-10T06:25:49.680Z,64.16
2023-04-10T06:28:17.171Z,60.15
2023-04-10T06:30:48.015Z,57.11
2023-04-10T06:33:16.377Z,57.20
2023-04-10T06:35:45.119Z,55.63
2023-04-10T06:38:12.424Z,55.84
2023-04-10T06:40:41.484Z,55.07
2023-04-10T06:43:08.459Z,53.41
2023-04-10T06:45:41.507Z,51.87
2023-04-10T06:48:08.824Z,51.24
2023-04-10T06:50:36.481Z,50.73
2023-04-10T06:53:03.530Z,54.52
2023-04-10T06:55:33.308Z,50.05
2023-04-10T06:58:02.529Z,51.10
2023-04-10T07:00:31.317Z,51.98
2023-04-10T07:02:58.345Z,49.78
2023-04-10T07:05:25.520Z,48.95
2023-04-10T07:07:53.356Z,49.24
2023-04-10T07:10:20.327Z,49.32
2023-04-10T07:12:47.345Z,50.77
2023-04-10T07:15:14.338Z,50.35
2023-04-10T07:17:41.392Z,50.96
2023-04-10T07:20:09.202Z,49.64
2023-04-10T07:22:36.185Z,51.16
2023-04-10T07:25:04.110Z,48.53
2023-04-10T07:27:31.159Z,47.46
2023-04-10T07:29:58.059Z,49.04
2023-04-10T07:32:25.593Z,49.57
2023-04-10T07:34:52.697Z,49.56
2023-04-10T07:37:19.771Z,47.75
2023-04-10T07:39:47.394Z,47.11
2023-04-10T07:42:17.341Z,47.00
2023-04-10T07:44:44.437Z,48.32
2023-04-10T07:47:11.618Z,47.58
2023-04-10T07:49:38.660Z,46.82
2023-04-10T07:52:06.643Z,45.40
2023-04-10T07:54:34.619Z,45.36
2023-04-10T07:57:01.594Z,46.53
2023-04-10T07:59:28.931Z,46.30
2023-04-10T08:01:56.215Z,46.05
2023-04-10T08:04:23.518Z,47.00
2023-04-10T08:06:51.475Z,44.24
2023-04-10T08:09:18.653Z,43.16
2023-04-10T08:11:45.697Z,44.11
2023-04-10T08:14:13.561Z,45.69
2023-04-10T08:16:47.009Z,46.08
2023-04-10T08:19:13.988Z,46.38
2023-04-10T08:21:41.495Z,46.74
2023-04-10T08:24:09.878Z,46.97
2023-04-10T08:26:36.974Z,45.61
2023-04-10T08:29:06.558Z,45.37
2023-04-10T08:31:38.214Z,45.92
2023-04-10T08:34:06.810Z,46.95
2023-04-10T08:36:39.640Z,47.43
2023-04-10T08:39:09.314Z,48.18
2023-04-10T08:41:37.050Z,47.24
2023-04-10T08:44:06.192Z,46.64
2023-04-10T08:46:36.950Z,46.56
2023-04-10T08:49:10.668Z,47.12
2023-04-10T08:52:13.982Z,47.12
2023-04-10T08:54:42.170Z,49.65
2023-04-10T08:57:21.442Z,49.62
2023-04-10T08:59:51.728Z,50.86
2023-04-10T09:02:20.121Z,45.88
2023-04-10T09:04:55.307Z,46.53
2023-04-10T09:07:23.490Z,48.85
2023-04-10T09:09:50.492Z,49.66
2023-04-10T09:12:18.119Z,48.08
2023-04-10T09:14:46.149Z,49.63
2023-04-10T09:17:24.404Z,47.99
2023-04-10T09:19:55.464Z,48.52
2023-04-10T09:22:36.328Z,49.00
2023-04-10T09:25:05.370Z,47.99
2023-04-10T09:27:39.330Z,48.78
2023-04-10T09:30:08.491Z,49.10
2023-04-10T09:32:46.675Z,47.69
2023-04-10T09:35:18.773Z,48.29
2023-04-10T09:37:47.378Z,48.43
2023-04-10T09:40:25.551Z,48.01
2023-04-10T09:42:54.002Z,47.33
2023-04-10T09:45:23.714Z,49.96
2023-04-10T09:48:07.803Z,49.12
2023-04-10T09:50:43.678Z,48.96
2023-04-10T09:53:17.153Z,48.01
2023-04-10T09:55:44.349Z,48.60
2023-04-10T09:58:12.482Z,48.51
2023-04-10T10:00:45.789Z,48.65
2023-04-10T10:03:19.312Z,49.39
2023-04-10T10:05:52.788Z,49.78
2023-04-10T10:08:20.705Z,50.47
2023-04-10T10:10:54.859Z,51.00
2023-04-10T10:13:57.066Z,51.27
2023-04-10T10:16:47.501Z,52.91
2023-04-10T10:19:26.099Z,52.15
2023-04-10T10:21:54.651Z,50.98
2023-04-10T10:24:26.455Z,51.82
2023-04-10T10:26:55.942Z,50.04
2023-04-10T10:29:24.728Z,50.70
2023-04-10T10:31:53.232Z,53.14
2023-04-10T10:34:21.832Z,53.65
2023-04-10T10:36:48.891Z,55.30
2023-04-10T10:39:46.471Z,55.55
2023-04-10T10:42:26.028Z,56.07
2023-04-10T10:45:05.254Z,56.15
2023-04-10T10:47:35.022Z,54.42
2023-04-10T10:50:04.188Z,54.10
2023-04-10T10:52:45.873Z,55.38
2023-04-10T10:55:25.018Z,54.07
2023-04-10T10:57:55.824Z,55.45
2023-04-10T11:00:25.567Z,56.44
2023-04-10T11:03:13.295Z,54.52
2023-04-10T11:05:55.531Z,56.01
2023-04-10T11:08:55.401Z,54.12
2023-04-10T11:11:27.282Z,54.83
2023-04-10T11:13:56.911Z,55.04
2023-04-10T11:16:34.163Z,53.23
2023-04-10T11:22:08.436Z,54.54
2023-04-10T11:24:59.532Z,53.46
2023-04-10T11:27:49.651Z,55.79
2023-04-10T11:30:35.891Z,55.34
2023-04-10T11:33:04.896Z,55.22
2023-04-10T11:35:32.711Z,54.86
2023-04-10T11:38:17.452Z,54.24
2023-04-10T11:41:02.351Z,55.59
2023-04-10T11:43:30.156Z,54.70
2023-04-10T11:46:05.609Z,54.66
2023-04-10T11:48:33.424Z,55.40
2023-04-10T11:51:08.748Z,56.05
2023-04-10T11:53:37.454Z,54.28
2023-04-10T11:56:16.539Z,54.08
2023-04-10T11:58:47.396Z,55.75
2023-04-10T12:01:14.751Z,53.64
2023-04-10T12:03:44.485Z,53.59
2023-04-10T12:06:15.256Z,54.88
2023-04-10T12:08:49.310Z,55.40
2023-04-10T12:11:22.959Z,55.13
2023-04-10T12:13:55.656Z,56.48
2023-04-10T12:16:25.259Z,55.97
2023-04-10T12:18:54.131Z,55.44
2023-04-10T12:21:21.770Z,55.31
2023-04-10T12:23:48.757Z,54.59
2023-04-10T12:26:19.176Z,56.50
2023-04-10T12:28:55.805Z,55.27
2023-04-10T12:31:35.828Z,54.73
2023-04-10T12:34:05.985Z,57.10
2023-04-10T12:36:35.258Z,56.22
2023-04-10T12:39:04.838Z,56.67
2023-04-10T12:41:35.570Z,55.87
2023-04-10T12:44:14.984Z,55.57
2023-04-10T12:46:44.759Z,55.94
2023-04-10T12:49:13.656Z,54.45
2023-04-10T12:51:52.874Z,55.30
2023-04-10T12:54:35.760Z,55.10
2023-04-10T12:57:06.581Z,55.78
2023-04-10T12:59:34.008Z,54.03
2023-04-10T13:02:01.124Z,54.47
2023-04-10T13:04:32.239Z,53.41
2023-04-10T13:06:59.343Z,53.36
2023-04-10T13:09:26.295Z,54.14
2023-04-10T13:11:53.245Z,54.82
2023-04-10T13:14:20.178Z,55.04
2023-04-10T13:16:49.420Z,54.00
2023-04-10T13:19:16.518Z,53.94
2023-04-10T13:21:43.951Z,51.42
2023-04-10T13:24:13.193Z,52.70
2023-04-10T13:26:41.621Z,52.18
2023-04-10T13:29:08.655Z,51.37
2023-04-10T13:31:35.846Z,51.25
2023-04-10T13:34:03.301Z,51.49
2023-04-10T13:36:31.929Z,50.35
2023-04-10T13:39:00.563Z,52.47
2023-04-10T13:41:27.468Z,50.47
2023-04-10T13:43:54.628Z,50.95
2023-04-10T13:46:21.737Z,51.09
2023-04-10T13:48:48.766Z,50.06
2023-04-10T13:51:17.081Z,49.33
2023-04-10T13:53:47.261Z,50.30
2023-04-10T13:56:14.421Z,49.68
2023-04-10T13:58:42.492Z,49.95
2023-04-10T14:01:09.478Z,49.88
2023-04-10T14:03:36.691Z,51.36
2023-04-10T14:06:03.941Z,50.80
2023-04-10T14:08:30.963Z,50.00
2023-04-10T14:10:57.968Z,50.65
2023-04-10T14:13:25.164Z,50.46
2023-04-10T14:15:53.675Z,49.41
2023-04-10T14:18:22.209Z,50.33
2023-04-10T14:20:50.983Z,49.90
2023-04-10T14:23:19.390Z,49.70
2023-04-10T14:25:50.437Z,49.27
2023-04-10T14:28:18.181Z,49.77
2023-04-10T14:30:50.547Z,50.91
2023-04-10T14:33:21.634Z,52.34
2023-04-10T14:35:48.847Z,52.96
2023-04-10T14:38:16.197Z,54.18
2023-04-10T14:40:46.623Z,55.14
2023-04-10T14:43:13.606Z,54.80
2023-04-10T14:45:46.302Z,57.22
2023-04-10T14:48:13.806Z,56.71
2023-04-10T14:50:40.903Z,55.71
2023-04-10T14:53:10.045Z,58.32
2023-04-10T14:55:39.006Z,62.30
2023-04-10T14:58:10.534Z,60.64
2023-04-10T15:00:38.717Z,61.82
2023-04-10T15:03:08.682Z,59.81
2023-04-10T15:05:37.520Z,61.58
2023-04-10T15:08:04.731Z,59.97
2023-04-10T15:10:36.288Z,60.01
2023-04-10T15:13:05.474Z,59.67
2023-04-10T15:15:38.174Z,61.52
2023-04-10T15:18:05.663Z,60.92
2023-04-10T15:20:37.128Z,62.92
2023-04-10T15:23:04.150Z,64.64
2023-04-10T15:25:34.577Z,66.03
2023-04-10T15:28:02.223Z,65.16
2023-04-10T15:30:31.927Z,61.92
2023-04-10T15:32:59.036Z,59.35
2023-04-10T15:35:30.497Z,60.10
2023-04-10T15:37:58.817Z,61.19
2023-04-10T15:40:25.806Z,62.64
2023-04-10T15:42:53.247Z,59.53
2023-04-10T15:45:20.781Z,58.51
2023-04-10T15:47:48.175Z,56.81
2023-04-10T15:50:15.259Z,56.73
2023-04-10T15:52:42.187Z,59.09
2023-04-10T15:55:09.356Z,58.28
2023-04-10T15:57:36.304Z,59.40
2023-04-10T16:00:04.721Z,58.92
2023-04-10T16:02:32.389Z,59.08
2023-04-10T16:04:59.621Z,58.28
2023-04-10T16:07:27.206Z,58.68
2023-04-10T16:09:56.689Z,60.07
2023-04-10T16:12:23.646Z,56.87
2023-04-10T16:14:50.705Z,59.01
2023-04-10T16:17:20.728Z,59.18
2023-04-10T16:19:47.719Z,60.04
2023-04-10T16:22:14.669Z,61.54
2023-04-10T16:24:41.654Z,59.19
2023-04-10T16:27:10.267Z,60.85
2023-04-10T16:29:38.273Z,62.27
2023-04-10T16:32:05.371Z,62.12
2023-04-10T16:34:34.349Z,63.29
2023-04-10T16:37:01.295Z,63.80
2023-04-10T16:39:28.404Z,64.58
2023-04-10T16:41:57.298Z,64.94
2023-04-10T16:44:24.252Z,66.35
2023-04-10T16:46:51.409Z,68.11
2023-04-10T16:49:19.473Z,70.73
2023-04-10T16:51:46.481Z,73.46
2023-04-10T16:54:14.927Z,74.30
2023-04-10T16:56:42.631Z,71.60
2023-04-10T16:59:09.635Z,73.10
2023-04-10T17:01:45.091Z,73.60
2023-04-10T17:04:13.513Z,75.57
2023-04-10T17:06:40.817Z,77.51
2023-04-10T17:09:08.436Z,78.97
2023-04-10T17:11:37.310Z,82.29
2023-04-10T17:14:10.565Z,84.47
2023-04-10T17:16:37.664Z,86.05
2023-04-10T17:19:06.333Z,85.77
2023-04-10T17:21:35.570Z,85.10
2023-04-10T17:24:02.640Z,84.32
2023-04-10T17:26:31.902Z,79.07
2023-04-10T17:28:58.969Z,79.66
2023-04-10T17:31:26.938Z,80.01
2023-04-10T17:33:59.709Z,80.94
2023-04-10T17:36:30.144Z,80.14
2023-04-10T17:38:58.496Z,79.97
2023-04-10T17:41:28.806Z,80.31
2023-04-10T17:44:02.573Z,80.40
2023-04-10T17:46:32.344Z,78.02
2023-04-10T17:49:05.797Z,78.35
2023-04-10T17:51:34.819Z,81.31
2023-04-10T17:54:03.708Z,80.93
2023-04-10T17:56:34.127Z,83.26
2023-04-10T17:59:07.268Z,84.08
2023-04-10T18:01:34.488Z,84.58
2023-04-10T18:04:02.911Z,85.60
2023-04-10T18:06:30.255Z,85.41
2023-04-10T18:08:58.118Z,86.39
2023-04-10T18:11:25.800Z,87.15
2023-04-10T18:13:58.235Z,87.23
2023-04-10T18:16:25.908Z,86.50
2023-04-10T18:18:54.904Z,87.85
2023-04-10T18:21:22.815Z,88.76
2023-04-10T18:23:56.042Z,89.61
2023-04-10T18:26:35.587Z,90.60
2023-04-10T18:29:08.680Z,91.24
2023-04-10T18:31:44.091Z,91.95
2023-04-10T18:34:11.408Z,90.82
2023-04-10T18:36:38.782Z,91.56
2023-04-10T18:39:06.804Z,90.99
2023-04-10T18:41:34.112Z,90.96
2023-04-10T18:44:05.971Z,91.44
2023-04-10T18:46:35.235Z,92.62
2023-04-10T18:49:03.469Z,92.78
2023-04-10T18:51:35.387Z,92.91
2023-04-10T18:54:05.260Z,93.02
2023-04-10T18:56:36.021Z,93.57
2023-04-10T18:59:03.189Z,93.97
2023-04-10T19:01:31.285Z,94.06
2023-04-10T19:03:59.716Z,94.98
2023-04-10T19:06:28.987Z,94.67
2023-04-10T19:08:57.060Z,95.39
2023-04-10T19:11:27.901Z,95.69
2023-04-10T19:13:57.701Z,96.08
2023-04-10T19:16:25.071Z,97.23
2023-04-10T19:18:56.125Z,97.74
2023-04-10T19:21:23.501Z,97.31
2023-04-10T19:23:50.689Z,97.74
2023-04-10T19:26:20.655Z,97.68
2023-04-10T19:29:10.486Z,96.99
2023-04-10T19:31:37.643Z,96.84
2023-04-10T19:34:09.545Z,97.17
2023-04-10T19:37:01.137Z,97.63
2023-04-10T19:39:28.280Z,97.07
2023-04-10T19:41:59.417Z,97.81
2023-04-10T19:44:31.524Z,98.06
2023-04-10T19:47:19.616Z,99.11
2023-04-10T19:49:46.864Z,98.34
2023-04-10T19:52:15.479Z,99.09
2023-04-10T19:54:42.569Z,99.20
2023-04-10T19:57:11.729Z,99.35
2023-04-10T19:59:40.399Z,99.28
2023-04-10T20:02:10.499Z,100.00
2023-04-10T20:04:39.433Z,100.00
2023-04-10T20:07:09.671Z,100.00
2023-04-10T20:09:37.157Z,100.00
2023-04-10T20:12:04.456Z,100.00
2023-04-10T20:14:31.362Z,100.00
2023-04-10T20:16:59.075Z,100.00
2023-04-10T20:19:34.808Z,100.00
2023-04-10T20:22:02.593Z,100.00
2023-04-10T20:24:29.845Z,100.00
2023-04-10T20:26:58.460Z,100.00
2023-04-10T20:29:26.376Z,100.00
2023-04-10T20:31:53.921Z,100.00
2023-04-10T20:34:21.179Z,100.00
2023-04-10T20:36:48.232Z,100.00
2023-04-10T20:39:16.677Z,100.00
2023-04-10T20:41:43.623Z,100.00
2023-04-10T20:44:10.638Z,100.00
2023-04-10T20:46:38.823Z,100.00
2023-04-10T20:49:05.821Z,100.00
2023-04-10T20:51:38.104Z,100.00
2023-04-10T20:54:06.994Z,100.00
2023-04-10T20:56:42.922Z,100.00
2023-04-10T20:59:13.450Z,100.00
2023-04-10T21:01:41.012Z,100.00
2023-04-10T21:04:08.091Z,100.00
2023-04-10T21:06:35.904Z,100.00
2023-04-10T21:09:03.154Z,100.00
2023-04-10T21:11:30.071Z,100.00
2023-04-10T21:13:57.013Z,100.00
2023-04-10T21:16:26.558Z,100.00
2023-04-10T21:18:53.941Z,100.00
2023-04-10T21:21:23.634Z,100.00
2023-04-10T21:23:54.020Z,100.00
2023-04-10T21:26:21.103Z,100.00
2023-04-10T21:28:48.058Z,100.00
2023-04-10T21:31:15.049Z,100.00
2023-04-10T21:33:44.181Z,100.00
2023-04-10T21:36:11.252Z,100.00
2023-04-10T21:38:38.194Z,100.00
2023-04-10T21:41:05.585Z,100.00
2023-04-10T21:43:33.152Z,100.00
2023-04-10T21:46:03.461Z,100.00
2023-04-10T21:48:30.444Z,100.00
2023-04-10T21:50:58.678Z,100.00
2023-04-10T21:53:25.674Z,100.00
2023-04-10T21:55:52.652Z,100.00
2023-04-10T21:58:19.749Z,100.00
2023-04-10T22:00:47.275Z,100.00
2023-04-10T22:03:16.347Z,100.00
2023-04-10T22:05:43.641Z,100.00
2023-04-10T22:08:10.754Z,100.00
2023-04-10T22:10:38.591Z,100.00
2023-04-10T22:13:08.742Z,100.00
2023-04-10T22:15:36.344Z,100.00
2023-04-10T22:18:03.424Z,100.00
2023-04-10T22:20:30.508Z,100.00
2023-04-10T22:22:58.255Z,100.00
2023-04-10T22:25:25.803Z,100.00
2023-04-10T22:27:52.748Z,100.00
2023-04-10T22:30:19.816Z,100.00
2023-04-10T22:32:46.786Z,100.00
2023-04-10T22:35:13.800Z,100.00
2023-04-10T22:37:40.889Z,100.00
2023-04-10T22:40:10.321Z,100.00
2023-04-10T22:42:37.268Z,100.00
2023-04-10T22:45:04.747Z,100.00
2023-04-10T22:47:31.832Z,100.00
2023-04-10T22:49:58.766Z,100.00
2023-04-10T22:52:25.928Z,100.00
2023-04-10T22:54:52.962Z,100.00
2023-04-10T22:57:19.907Z,100.00
2023-04-10T22:59:49.419Z,100.00
2023-04-10T23:02:16.485Z,100.00
2023-04-10T23:04:43.589Z,100.00
2023-04-10T23:07:10.610Z,100.00
2023-04-10T23:09:37.622Z,100.00
2023-04-10T23:12:04.843Z,100.00
2023-04-10T23:14:35.909Z,100.00
2023-04-10T23:17:05.689Z,100.00
2023-04-10T23:19:32.637Z,100.00
2023-04-10T23:21:59.565Z,100.00
2023-04-10T23:24:26.478Z,100.00
2023-04-10T23:26:53.371Z,100.00
2023-04-10T23:29:20.405Z,100.00
2023-04-10T23:31:47.324Z,100.00
2023-04-10T23:34:14.248Z,100.00
2023-04-10T23:36:42.814Z,100.00
2023-04-10T23:39:09.854Z,100.00
2023-04-10T23:41:36.852Z,100.00
2023-04-10T23:44:03.878Z,100.00
2023-04-10T23:46:30.818Z,100.00
2023-04-10T23:48:57.798Z,100.00
2023-04-10T23:51:24.819Z,100.00
2023-04-10T23:53:51.737Z,100.00
2023-04-10T23:56:18.803Z,100.00
2023-04-10T23:58:45.833Z,100.00
